createdAt,value
2017-12-16T00:01:46.019Z,82.59
2017-12-16T00:04:14.442Z,82.62
2017-12-16T00:06:42.114Z,82.58
2017-12-16T00:09:09.728Z,82.55
2017-12-16T00:11:37.618Z,82.51
2017-12-16T00:14:05.641Z,82.32
2017-12-16T00:19:26.204Z,82.48
2017-12-16T00:21:53.742Z,82.51
2017-12-16T00:24:21.412Z,82.68
2017-12-16T00:26:49.110Z,82.70
2017-12-16T00:29:16.567Z,82.69
2017-12-16T00:31:44.059Z,82.72
2017-12-16T00:34:11.564Z,82.72
2017-12-16T00:36:39.010Z,82.65
2017-12-16T00:39:06.494Z,82.60
2017-12-16T00:41:34.178Z,82.62
2017-12-16T00:44:05.647Z,82.58
2017-12-16T00:46:33.098Z,82.51
2017-12-16T00:49:00.653Z,82.59
2017-12-16T00:51:28.104Z,82.29
2017-12-16T00:53:55.535Z,82.18
2017-12-16T00:56:23.054Z,82.32
2017-12-16T00:58:50.524Z,82.50
2017-12-16T01:01:18.071Z,82.67
2017-12-16T01:03:45.506Z,82.67
2017-12-16T01:06:13.112Z,82.66
2017-12-16T01:08:40.641Z,82.71
2017-12-16T01:11:08.163Z,82.73
2017-12-16T01:13:36.636Z,82.65
2017-12-16T01:16:04.637Z,82.76
2017-12-16T01:18:32.116Z,82.86
2017-12-16T01:20:59.973Z,82.97
2017-12-16T01:23:27.477Z,83.23
2017-12-16T01:25:54.935Z,83.28
2017-12-16T01:28:22.409Z,83.31
2017-12-16T01:30:49.969Z,83.50
2017-12-16T01:33:17.429Z,83.67
2017-12-16T01:35:56.614Z,83.21
2017-12-16T01:38:29.005Z,83.17
2017-12-16T01:40:56.539Z,83.24
2017-12-16T01:43:24.128Z,83.23
2017-12-16T01:45:51.620Z,83.11
2017-12-16T01:48:19.074Z,83.12
2017-12-16T01:50:46.542Z,83.09
2017-12-16T01:53:14.077Z,82.94
2017-12-16T01:55:41.544Z,82.87
2017-12-16T01:58:09.055Z,82.91
2017-12-16T02:00:36.715Z,83.00
2017-12-16T02:03:04.157Z,83.08
2017-12-16T02:05:31.757Z,83.00
2017-12-16T02:07:59.668Z,82.99
2017-12-16T02:10:27.150Z,82.93
2017-12-16T02:12:54.606Z,82.97
2017-12-16T02:15:22.112Z,82.85
2017-12-16T02:17:52.476Z,82.93
2017-12-16T02:20:19.911Z,83.14
2017-12-16T02:22:47.351Z,83.20
2017-12-16T02:25:14.819Z,83.16
2017-12-16T02:27:42.603Z,83.20
2017-12-16T02:30:10.077Z,83.19
2017-12-16T02:32:37.813Z,83.14
2017-12-16T02:35:05.280Z,83.19
2017-12-16T02:37:32.829Z,83.15
2017-12-16T02:40:00.281Z,83.23
2017-12-16T02:42:27.730Z,83.14
2017-12-16T02:44:55.365Z,83.34
2017-12-16T02:47:22.900Z,83.71
2017-12-16T02:49:50.389Z,83.84
2017-12-16T02:52:17.822Z,83.95
2017-12-16T02:54:45.282Z,84.17
2017-12-16T02:57:13.581Z,84.17
2017-12-16T02:59:41.134Z,84.18
2017-12-16T03:02:08.611Z,84.20
2017-12-16T03:04:36.071Z,84.34
2017-12-16T03:07:03.610Z,84.21
2017-12-16T03:09:31.124Z,84.23
2017-12-16T03:11:58.647Z,84.25
2017-12-16T03:14:26.175Z,84.48
2017-12-16T03:16:53.636Z,84.32
2017-12-16T03:19:21.067Z,84.03
2017-12-16T03:21:48.581Z,83.74
2017-12-16T03:24:16.251Z,83.73
2017-12-16T03:32:49.152Z,83.54
2017-12-16T03:35:16.985Z,83.42
2017-12-16T03:40:51.516Z,83.79
2017-12-16T03:43:19.015Z,83.83
2017-12-16T03:45:46.782Z,83.94
2017-12-16T03:48:14.244Z,83.91
2017-12-16T03:50:41.768Z,83.94
2017-12-16T03:53:09.220Z,84.00
2017-12-16T03:55:36.698Z,84.17
2017-12-16T03:58:09.076Z,84.18
2017-12-16T04:00:36.537Z,84.28
2017-12-16T04:03:04.001Z,84.21
2017-12-16T04:05:31.466Z,84.16
2017-12-16T04:08:13.393Z,84.11
2017-12-16T04:10:40.877Z,83.96
2017-12-16T04:13:08.365Z,84.05
2017-12-16T04:15:35.874Z,83.98
2017-12-16T04:18:03.610Z,84.20
2017-12-16T04:20:31.056Z,84.31
2017-12-16T04:22:58.503Z,84.17
2017-12-16T04:25:25.995Z,84.12
2017-12-16T04:27:53.458Z,84.27
2017-12-16T04:30:21.607Z,84.21
2017-12-16T04:32:49.088Z,84.36
2017-12-16T04:35:16.617Z,84.24
2017-12-16T04:37:54.486Z,84.14
2017-12-16T04:40:22.029Z,84.40
2017-12-16T04:42:49.478Z,84.46
2017-12-16T04:45:16.952Z,84.58
2017-12-16T04:47:50.088Z,84.66
2017-12-16T04:50:18.385Z,84.71
2017-12-16T04:52:45.838Z,84.62
2017-12-16T04:55:13.322Z,84.53
2017-12-16T04:57:40.812Z,84.46
2017-12-16T05:00:09.192Z,84.50
2017-12-16T05:02:36.851Z,84.74
2017-12-16T05:05:04.591Z,84.67
2017-12-16T05:07:32.112Z,84.73
2017-12-16T05:10:00.328Z,84.48
2017-12-16T05:12:27.765Z,84.76
2017-12-16T05:14:55.205Z,84.89
2017-12-16T05:17:23.977Z,85.11
2017-12-16T05:19:54.774Z,85.32
2017-12-16T05:22:22.246Z,85.56
2017-12-16T05:24:49.697Z,85.70
2017-12-16T05:30:15.974Z,85.88
2017-12-16T05:32:43.449Z,86.00
2017-12-16T05:35:10.909Z,85.95
2017-12-16T05:37:38.596Z,85.91
2017-12-16T05:40:06.089Z,85.85
2017-12-16T05:42:33.566Z,85.84
2017-12-16T05:45:01.029Z,86.04
2017-12-16T05:47:28.716Z,86.10
2017-12-16T05:49:56.248Z,86.19
2017-12-16T05:52:23.785Z,86.02
2017-12-16T05:54:51.306Z,86.05
2017-12-16T05:57:18.793Z,86.00
2017-12-16T05:59:46.360Z,85.99
2017-12-16T06:02:13.831Z,85.94
2017-12-16T06:04:41.296Z,85.78
2017-12-16T06:10:01.606Z,85.78
2017-12-16T06:12:29.063Z,85.85
2017-12-16T06:14:56.514Z,85.83
2017-12-16T06:17:23.967Z,85.80
2017-12-16T06:19:51.405Z,85.80
2017-12-16T06:22:19.647Z,85.87
2017-12-16T06:24:47.141Z,85.90
2017-12-16T06:27:14.618Z,85.85
2017-12-16T06:29:42.150Z,85.82
2017-12-16T06:32:09.639Z,85.65
2017-12-16T06:34:37.092Z,85.64
2017-12-16T06:39:57.112Z,85.53
2017-12-16T06:42:24.603Z,85.61
2017-12-16T06:44:53.113Z,85.60
2017-12-16T06:47:20.741Z,85.63
2017-12-16T06:49:48.907Z,85.68
2017-12-16T06:52:17.768Z,85.72
2017-12-16T06:54:45.432Z,85.61
2017-12-16T06:57:12.949Z,85.48
2017-12-16T06:59:40.525Z,85.42
2017-12-16T07:02:08.002Z,85.55
2017-12-16T07:04:35.493Z,85.64
2017-12-16T07:07:03.007Z,85.63
2017-12-16T07:09:30.488Z,85.50
2017-12-16T07:11:57.942Z,85.57
2017-12-16T07:14:25.601Z,85.45
2017-12-16T07:16:53.182Z,85.26
2017-12-16T07:19:20.623Z,85.12
2017-12-16T07:21:48.140Z,85.20
2017-12-16T07:24:15.643Z,85.24
2017-12-16T07:26:43.153Z,85.00
2017-12-16T07:29:10.661Z,85.11
2017-12-16T07:31:38.839Z,85.23
2017-12-16T07:34:06.287Z,85.19
2017-12-16T07:36:33.814Z,85.19
2017-12-16T07:39:01.375Z,85.33
2017-12-16T07:41:28.971Z,85.31
2017-12-16T07:43:56.468Z,85.18
2017-12-16T07:46:23.974Z,85.38
2017-12-16T07:48:51.706Z,85.53
2017-12-16T07:51:19.273Z,85.73
2017-12-16T07:53:46.795Z,85.82
2017-12-16T07:56:14.317Z,85.88
2017-12-16T07:58:41.837Z,85.90
2017-12-16T08:01:09.314Z,86.09
2017-12-16T08:03:36.827Z,86.14
2017-12-16T08:06:05.247Z,86.28
2017-12-16T08:08:32.728Z,86.40
2017-12-16T08:11:00.513Z,86.48
2017-12-16T08:13:28.062Z,86.66
2017-12-16T08:15:55.516Z,86.50
2017-12-16T08:18:23.008Z,86.41
2017-12-16T08:20:50.601Z,86.22
2017-12-16T08:23:18.118Z,85.98
2017-12-16T08:25:45.632Z,85.85
2017-12-16T08:31:06.339Z,86.36
2017-12-16T08:33:33.807Z,86.72
2017-12-16T08:36:01.248Z,86.57
2017-12-16T08:38:28.689Z,86.44
2017-12-16T08:40:56.171Z,86.66
2017-12-16T08:43:23.658Z,86.52
2017-12-16T08:45:51.111Z,86.39
2017-12-16T08:48:18.629Z,86.54
2017-12-16T08:50:46.149Z,86.55
2017-12-16T08:53:13.759Z,86.55
2017-12-16T08:55:41.228Z,86.57
2017-12-16T08:58:08.696Z,86.43
2017-12-16T09:00:36.222Z,86.46
2017-12-16T09:03:03.872Z,86.63
2017-12-16T09:05:31.365Z,86.67
2017-12-16T09:07:59.536Z,86.58
2017-12-16T09:10:27.052Z,86.60
2017-12-16T09:12:54.605Z,86.66
2017-12-16T09:15:22.149Z,86.49
2017-12-16T09:17:59.483Z,86.56
2017-12-16T09:20:27.555Z,86.38
2017-12-16T09:22:55.944Z,86.35
2017-12-16T09:25:23.420Z,86.00
2017-12-16T09:27:50.977Z,85.66
2017-12-16T09:30:18.497Z,85.55
2017-12-16T09:32:46.396Z,85.23
2017-12-16T09:35:13.912Z,85.36
2017-12-16T09:37:41.529Z,85.44
2017-12-16T09:40:09.052Z,84.68
2017-12-16T09:42:36.667Z,84.51
2017-12-16T09:45:04.162Z,84.36
2017-12-16T09:47:31.723Z,84.20
2017-12-16T09:49:59.233Z,83.32
2017-12-16T09:52:26.714Z,83.29
2017-12-16T09:54:54.282Z,83.01
2017-12-16T09:57:22.656Z,82.92
2017-12-16T09:59:50.198Z,82.21
2017-12-16T10:02:17.725Z,81.21
2017-12-16T10:04:46.050Z,80.45
2017-12-16T10:07:13.632Z,80.51
2017-12-16T10:09:41.840Z,80.64
2017-12-16T10:12:09.372Z,80.66
2017-12-16T10:14:36.880Z,80.44
2017-12-16T10:17:04.415Z,80.67
2017-12-16T10:19:31.940Z,80.58
2017-12-16T10:21:59.679Z,80.52
2017-12-16T10:24:27.217Z,80.96
2017-12-16T10:26:54.731Z,80.53
2017-12-16T10:29:22.413Z,80.24
2017-12-16T10:31:49.897Z,80.46
2017-12-16T10:34:17.449Z,80.40
2017-12-16T10:36:45.558Z,80.76
2017-12-16T10:39:13.076Z,80.74
2017-12-16T10:41:40.602Z,80.63
2017-12-16T10:44:08.060Z,80.66
2017-12-16T10:46:35.621Z,81.08
2017-12-16T10:49:03.182Z,81.52
2017-12-16T10:51:30.695Z,81.60
2017-12-16T10:53:58.564Z,81.45
2017-12-16T10:56:26.125Z,81.39
2017-12-16T10:58:54.320Z,81.51
2017-12-16T11:01:21.872Z,81.70
2017-12-16T11:03:49.405Z,81.92
2017-12-16T11:06:16.880Z,81.95
2017-12-16T11:08:44.396Z,81.77
2017-12-16T11:11:11.886Z,81.85
2017-12-16T11:13:39.400Z,82.64
2017-12-16T11:16:06.887Z,81.19
2017-12-16T11:18:34.324Z,81.05
2017-12-16T11:21:01.834Z,80.82
2017-12-16T11:23:29.348Z,81.15
2017-12-16T11:25:57.035Z,80.74
2017-12-16T11:28:24.567Z,80.94
2017-12-16T11:30:52.158Z,80.68
2017-12-16T11:33:19.730Z,80.92
2017-12-16T11:35:47.267Z,81.21
2017-12-16T11:38:16.365Z,81.10
2017-12-16T11:40:43.882Z,81.51
2017-12-16T11:43:11.629Z,81.29
2017-12-16T11:45:39.147Z,81.49
2017-12-16T11:48:06.653Z,81.22
2017-12-16T11:50:34.178Z,81.05
2017-12-16T11:53:01.717Z,81.19
2017-12-16T11:55:29.358Z,81.01
2017-12-16T11:57:56.925Z,81.23
2017-12-16T12:00:24.425Z,81.53
2017-12-16T12:02:51.883Z,81.70
2017-12-16T12:05:19.450Z,81.83
2017-12-16T12:07:46.941Z,82.15
2017-12-16T12:10:14.412Z,81.84
2017-12-16T12:12:41.952Z,81.85
2017-12-16T12:15:09.454Z,81.42
2017-12-16T12:17:36.916Z,81.15
2017-12-16T12:20:04.711Z,81.05
2017-12-16T12:22:32.387Z,80.86
2017-12-16T12:24:59.890Z,80.73
2017-12-16T12:30:20.208Z,80.37
2017-12-16T12:32:47.720Z,80.24
2017-12-16T12:35:15.171Z,80.13
2017-12-16T12:37:42.632Z,80.24
2017-12-16T12:40:10.121Z,80.16
2017-12-16T12:42:37.594Z,80.09
2017-12-16T12:45:05.090Z,79.89
2017-12-16T12:47:32.549Z,80.04
2017-12-16T12:50:00.364Z,80.28
2017-12-16T12:52:27.836Z,80.31
2017-12-16T12:54:55.278Z,80.32
2017-12-16T12:57:22.748Z,80.28
2017-12-16T12:59:50.527Z,80.25
2017-12-16T13:02:18.235Z,80.20
2017-12-16T13:04:45.827Z,80.37
2017-12-16T13:07:13.383Z,79.99
2017-12-16T13:09:40.919Z,80.18
2017-12-16T13:12:08.585Z,80.16
2017-12-16T13:14:36.113Z,80.13
2017-12-16T13:17:03.530Z,80.32
2017-12-16T13:19:31.218Z,80.37
2017-12-16T13:21:58.724Z,80.20
2017-12-16T13:24:26.160Z,80.15
2017-12-16T13:26:53.674Z,79.81
2017-12-16T13:29:21.157Z,79.88
2017-12-16T13:31:48.681Z,80.11
2017-12-16T13:34:16.209Z,79.87
2017-12-16T13:36:43.850Z,79.80
2017-12-16T13:39:11.638Z,79.45
2017-12-16T13:41:39.141Z,79.06
2017-12-16T13:44:06.630Z,79.00
2017-12-16T13:46:34.347Z,78.89
2017-12-16T13:49:01.880Z,79.07
2017-12-16T13:51:29.408Z,79.16
2017-12-16T13:53:57.853Z,78.92
2017-12-16T13:56:44.676Z,78.86
2017-12-16T13:59:12.162Z,78.89
2017-12-16T14:01:39.872Z,78.84
2017-12-16T14:04:07.341Z,78.59
2017-12-16T14:06:34.951Z,78.74
2017-12-16T14:09:02.417Z,78.83
2017-12-16T14:11:30.056Z,78.67
2017-12-16T14:13:57.578Z,78.71
2017-12-16T14:16:25.156Z,78.68
2017-12-16T14:18:52.616Z,78.61
2017-12-16T14:21:20.151Z,78.47
2017-12-16T14:23:47.649Z,78.57
2017-12-16T14:26:15.393Z,78.51
2017-12-16T14:28:42.865Z,78.59
2017-12-16T14:31:10.520Z,78.70
2017-12-16T14:33:38.054Z,79.18
2017-12-16T14:36:05.670Z,79.17
2017-12-16T14:38:33.162Z,79.10
2017-12-16T14:41:00.698Z,79.33
2017-12-16T14:43:28.158Z,79.33
2017-12-16T14:45:55.621Z,79.79
2017-12-16T14:48:32.800Z,80.09
2017-12-16T14:51:00.274Z,79.99
2017-12-16T14:53:27.722Z,79.98
2017-12-16T14:55:55.304Z,79.68
2017-12-16T14:58:23.089Z,79.80
2017-12-16T15:00:50.561Z,79.81
2017-12-16T15:03:18.088Z,79.93
2017-12-16T15:05:45.577Z,80.07
2017-12-16T15:08:13.094Z,80.19
2017-12-16T15:10:40.626Z,80.51
2017-12-16T15:13:08.112Z,80.58
2017-12-16T15:15:35.662Z,80.69
2017-12-16T15:18:03.213Z,80.84
2017-12-16T15:20:31.528Z,80.52
2017-12-16T15:22:59.023Z,80.64
2017-12-16T15:25:27.268Z,80.64
2017-12-16T15:27:54.779Z,80.54
2017-12-16T15:30:22.288Z,80.46
2017-12-16T15:32:49.859Z,80.38
2017-12-16T15:35:17.373Z,80.43
2017-12-16T15:37:44.838Z,80.42
2017-12-16T15:40:12.294Z,80.27
2017-12-16T15:42:40.032Z,80.30
2017-12-16T15:45:07.540Z,80.71
2017-12-16T15:47:35.043Z,80.65
2017-12-16T15:50:02.500Z,80.90
2017-12-16T15:52:30.670Z,80.53
2017-12-16T15:54:58.181Z,80.48
2017-12-16T15:57:25.705Z,80.77
2017-12-16T15:59:53.184Z,80.88
2017-12-16T16:02:20.701Z,81.02
2017-12-16T16:04:48.151Z,81.31
2017-12-16T16:07:15.610Z,81.61
2017-12-16T16:09:43.198Z,81.57
2017-12-16T16:12:10.663Z,81.54
2017-12-16T16:14:38.201Z,81.63
2017-12-16T16:17:05.735Z,81.65
2017-12-16T16:19:33.228Z,81.64
2017-12-16T16:22:00.687Z,81.44
2017-12-16T16:24:28.214Z,81.43
2017-12-16T16:27:09.998Z,81.35
2017-12-16T16:29:37.558Z,81.35
2017-12-16T16:32:05.058Z,81.18
2017-12-16T16:34:32.500Z,81.03
2017-12-16T16:37:00.266Z,80.98
2017-12-16T16:39:27.834Z,80.65
2017-12-16T16:41:55.370Z,80.84
2017-12-16T16:44:22.951Z,80.66
2017-12-16T16:46:50.577Z,80.63
2017-12-16T16:49:18.176Z,80.53
2017-12-16T16:51:46.897Z,80.59
2017-12-16T16:54:15.457Z,80.68
2017-12-16T16:56:43.192Z,80.53
2017-12-16T16:59:11.504Z,80.49
2017-12-16T17:01:40.322Z,80.46
2017-12-16T17:04:07.844Z,80.31
2017-12-16T17:06:35.356Z,80.37
2017-12-16T17:09:04.953Z,80.21
2017-12-16T17:14:08.646Z,80.03
2017-12-16T17:16:36.618Z,79.68
2017-12-16T17:19:04.196Z,79.82
2017-12-16T17:21:32.226Z,79.87
2017-12-16T17:23:59.909Z,79.81
2017-12-16T17:29:25.986Z,79.46
2017-12-16T17:34:27.447Z,79.41
2017-12-16T17:39:47.901Z,79.07
2017-12-16T17:42:15.439Z,79.14
2017-12-16T17:44:42.939Z,79.24
2017-12-16T17:47:11.307Z,79.12
2017-12-16T17:49:38.875Z,79.14
2017-12-16T17:52:06.346Z,79.17
2017-12-16T17:54:33.882Z,79.24
2017-12-16T17:57:01.358Z,79.07
2017-12-16T17:59:29.073Z,79.07
2017-12-16T18:01:56.647Z,79.09
2017-12-16T18:04:24.148Z,79.13
2017-12-16T18:06:56.633Z,79.22
2017-12-16T18:09:24.393Z,79.10
2017-12-16T18:11:51.916Z,79.01
2017-12-16T18:14:19.473Z,78.99
2017-12-16T18:16:47.293Z,78.89
2017-12-16T18:19:14.777Z,79.18
2017-12-16T18:21:42.294Z,79.37
2017-12-16T18:24:09.862Z,79.14
2017-12-16T18:26:37.365Z,79.04
2017-12-16T18:29:04.890Z,79.02
2017-12-16T18:31:32.364Z,78.79
2017-12-16T18:33:59.840Z,78.92
2017-12-16T18:36:27.512Z,79.02
2017-12-16T18:38:55.022Z,79.04
2017-12-16T18:41:22.478Z,79.08
2017-12-16T18:43:50.066Z,79.23
2017-12-16T18:46:17.569Z,79.36
2017-12-16T18:48:45.024Z,79.54
2017-12-16T18:51:12.525Z,79.24
2017-12-16T18:53:40.055Z,79.19
2017-12-16T18:56:07.629Z,79.17
2017-12-16T18:58:35.339Z,79.26
2017-12-16T19:01:02.860Z,79.22
2017-12-16T19:03:30.388Z,79.35
2017-12-16T19:05:57.907Z,79.30
2017-12-16T19:11:18.187Z,79.70
2017-12-16T19:13:45.955Z,79.83
2017-12-16T19:16:13.469Z,79.91
2017-12-16T19:18:41.001Z,79.90
2017-12-16T19:21:08.555Z,79.92
2017-12-16T19:23:36.121Z,79.96
2017-12-16T19:26:03.678Z,80.08
2017-12-16T19:28:36.137Z,80.13
2017-12-16T19:31:03.636Z,80.17
2017-12-16T19:33:31.476Z,80.22
2017-12-16T19:35:58.993Z,80.16
2017-12-16T19:38:26.762Z,80.24
2017-12-16T19:40:54.327Z,80.43
2017-12-16T19:43:21.886Z,80.29
2017-12-16T19:45:49.351Z,80.17
2017-12-16T19:48:16.860Z,80.13
2017-12-16T19:50:44.400Z,80.11
2017-12-16T19:53:11.912Z,79.88
2017-12-16T19:55:39.457Z,79.75
2017-12-16T19:58:06.997Z,79.85
2017-12-16T20:00:34.665Z,79.79
2017-12-16T20:03:02.372Z,79.87
2017-12-16T20:05:30.076Z,79.93
2017-12-16T20:07:58.756Z,79.64
2017-12-16T20:10:26.650Z,79.67
2017-12-16T20:12:54.481Z,79.69
2017-12-16T20:15:22.218Z,79.68
2017-12-16T20:17:50.000Z,79.91
2017-12-16T20:20:18.586Z,79.96
2017-12-16T20:22:46.414Z,79.70
2017-12-16T20:25:14.180Z,79.63
2017-12-16T20:27:41.955Z,80.04
2017-12-16T20:30:09.735Z,79.83
2017-12-16T20:32:37.569Z,79.69
2017-12-16T20:35:05.361Z,79.51
2017-12-16T20:37:33.138Z,79.38
2017-12-16T20:40:00.948Z,79.46
2017-12-16T20:42:28.758Z,79.44
2017-12-16T20:44:56.508Z,79.43
2017-12-16T20:47:24.210Z,79.61
2017-12-16T20:49:52.026Z,79.55
2017-12-16T20:52:19.787Z,79.48
2017-12-16T20:54:47.595Z,79.45
2017-12-16T20:57:15.379Z,79.46
2017-12-16T20:59:43.223Z,79.47
2017-12-16T21:02:10.985Z,79.49
2017-12-16T21:04:38.754Z,79.63
2017-12-16T21:07:06.576Z,79.44
2017-12-16T21:09:34.423Z,79.77
2017-12-16T21:12:02.205Z,79.80
2017-12-16T21:14:30.013Z,79.86
2017-12-16T21:17:02.832Z,79.72
2017-12-16T21:19:30.618Z,79.75
2017-12-16T21:21:58.395Z,80.06
2017-12-16T21:24:26.162Z,80.52
2017-12-16T21:26:53.739Z,81.28
2017-12-16T21:29:21.227Z,81.79
2017-12-16T21:31:48.699Z,82.19
2017-12-16T21:34:16.268Z,82.43
2017-12-16T21:36:43.741Z,82.99
2017-12-16T21:39:11.254Z,83.37
2017-12-16T21:41:38.882Z,83.76
2017-12-16T21:44:06.473Z,84.22
2017-12-16T21:46:34.018Z,84.51
2017-12-16T21:49:01.540Z,84.83
2017-12-16T21:51:29.086Z,84.98
2017-12-16T21:53:56.882Z,84.93
2017-12-16T21:56:24.388Z,85.08
2017-12-16T21:58:51.909Z,84.90
2017-12-16T22:01:19.443Z,84.73
2017-12-16T22:03:47.061Z,84.50
2017-12-16T22:06:14.756Z,84.40
2017-12-16T22:08:42.246Z,84.40
2017-12-16T22:11:09.785Z,84.01
2017-12-16T22:13:38.369Z,83.76
2017-12-16T22:16:05.969Z,83.59
2017-12-16T22:18:33.918Z,83.41
2017-12-16T22:21:01.441Z,83.59
2017-12-16T22:23:29.179Z,83.42
2017-12-16T22:25:56.737Z,83.24
2017-12-16T22:28:24.209Z,82.85
2017-12-16T22:30:52.119Z,83.04
2017-12-16T22:33:19.624Z,83.07
2017-12-16T22:35:47.346Z,82.96
2017-12-16T22:38:14.893Z,83.03
2017-12-16T22:40:43.890Z,83.24
2017-12-16T22:43:11.433Z,83.32
2017-12-16T22:45:39.321Z,83.28
2017-12-16T22:48:06.878Z,82.88
2017-12-16T22:50:34.382Z,82.97
2017-12-16T22:53:02.116Z,82.87
2017-12-16T22:55:29.641Z,82.77
2017-12-16T22:57:57.174Z,82.68
2017-12-16T23:00:24.858Z,82.66
2017-12-16T23:02:52.405Z,82.75
2017-12-16T23:05:20.014Z,82.70
2017-12-16T23:07:47.563Z,82.71
2017-12-16T23:10:15.020Z,82.68
2017-12-16T23:12:42.520Z,81.91
2017-12-16T23:15:10.275Z,81.78
2017-12-16T23:17:37.813Z,81.98
2017-12-16T23:20:05.325Z,81.91
2017-12-16T23:22:32.789Z,81.94
2017-12-16T23:25:00.305Z,81.80
2017-12-16T23:27:27.918Z,81.88
2017-12-16T23:29:55.475Z,81.92
2017-12-16T23:32:23.798Z,82.26
2017-12-16T23:34:51.359Z,82.33
2017-12-16T23:37:18.828Z,82.76
2017-12-16T23:39:46.362Z,82.38
2017-12-16T23:42:13.902Z,82.39
2017-12-16T23:44:41.444Z,82.73
2017-12-16T23:47:14.385Z,82.90
2017-12-16T23:49:42.101Z,83.43
2017-12-16T23:52:09.742Z,83.32
2017-12-16T23:54:37.472Z,83.56
2017-12-16T23:57:05.020Z,83.42
2017-12-16T23:59:32.490Z,83.69
